createdAt,value
2022-11-25T00:02:12.307Z,83.33
2022-11-25T00:07:14.219Z,83.18
2022-11-25T00:12:22.582Z,83.19
2022-11-25T00:17:24.564Z,83.18
2022-11-25T00:22:26.519Z,83.13
2022-11-25T00:27:28.390Z,83.19
2022-11-25T00:32:32.930Z,83.13
2022-11-25T00:37:34.790Z,82.78
2022-11-25T00:42:58.259Z,83.18
2022-11-25T00:48:06.694Z,83.40
2022-11-25T00:53:08.740Z,83.32
2022-11-25T00:58:10.620Z,83.00
2022-11-25T01:03:13.695Z,83.09
2022-11-25T01:08:15.619Z,83.15
2022-11-25T01:13:17.449Z,83.19
2022-11-25T01:18:19.329Z,83.25
2022-11-25T01:23:21.221Z,83.24
2022-11-25T01:28:23.197Z,83.15
2022-11-25T01:33:28.815Z,82.51
2022-11-25T01:38:34.820Z,82.67
2022-11-25T01:43:37.304Z,82.59
2022-11-25T01:48:46.587Z,82.80
2022-11-25T01:53:49.348Z,82.76
2022-11-25T01:58:52.178Z,82.96
2022-11-25T02:03:57.503Z,82.98
2022-11-25T02:09:04.956Z,82.99
2022-11-25T02:14:08.550Z,82.95
2022-11-25T02:19:22.429Z,82.88
2022-11-25T02:24:39.199Z,82.95
2022-11-25T02:29:43.780Z,82.73
2022-11-25T02:34:49.769Z,82.71
2022-11-25T02:39:53.539Z,82.86
2022-11-25T02:44:55.359Z,82.90
2022-11-25T02:49:59.196Z,82.86
2022-11-25T02:55:01.088Z,82.83
2022-11-25T03:00:05.105Z,82.78
2022-11-25T03:05:07.241Z,82.50
2022-11-25T03:10:09.492Z,82.28
2022-11-25T03:15:12.360Z,82.72
2022-11-25T03:20:15.359Z,82.85
2022-11-25T03:25:17.433Z,82.70
2022-11-25T03:30:22.320Z,82.54
2022-11-25T03:35:25.289Z,82.65
2022-11-25T03:40:28.358Z,82.78
2022-11-25T03:45:30.325Z,82.95
2022-11-25T03:50:33.795Z,82.92
2022-11-25T03:55:35.796Z,82.99
2022-11-25T04:00:39.650Z,83.04
2022-11-25T04:05:42.085Z,83.11
2022-11-25T04:10:44.011Z,83.27
2022-11-25T04:15:47.503Z,82.73
2022-11-25T04:20:50.065Z,82.50
2022-11-25T04:25:52.327Z,82.57
2022-11-25T04:30:58.942Z,82.30
2022-11-25T04:36:00.950Z,82.21
2022-11-25T04:41:02.992Z,82.29
2022-11-25T04:46:15.402Z,82.58
2022-11-25T04:51:20.357Z,82.94
2022-11-25T04:56:25.301Z,82.81
2022-11-25T05:01:28.568Z,82.43
2022-11-25T05:06:36.926Z,82.78
2022-11-25T05:11:39.164Z,83.14
2022-11-25T05:16:41.121Z,83.03
2022-11-25T05:21:44.267Z,82.89
2022-11-25T05:26:46.795Z,83.26
2022-11-25T05:31:49.031Z,83.47
2022-11-25T05:36:52.066Z,83.49
2022-11-25T05:41:54.575Z,83.38
2022-11-25T05:46:56.483Z,83.20
2022-11-25T05:51:58.951Z,83.23
2022-11-25T05:57:01.202Z,83.29
2022-11-25T06:02:20.778Z,83.26
2022-11-25T06:07:22.864Z,83.19
2022-11-25T06:12:24.848Z,83.15
2022-11-25T06:17:26.741Z,83.14
2022-11-25T06:22:37.548Z,82.97
2022-11-25T06:28:04.954Z,82.72
2022-11-25T06:33:01.447Z,82.61
2022-11-25T06:38:03.519Z,82.46
2022-11-25T06:43:05.492Z,82.55
2022-11-25T06:48:07.305Z,82.84
2022-11-25T06:53:09.143Z,82.79
2022-11-25T06:58:34.455Z,82.58
2022-11-25T07:03:33.068Z,82.66
2022-11-25T07:08:34.996Z,82.65
2022-11-25T07:13:36.943Z,82.74
2022-11-25T07:18:39.712Z,82.85
2022-11-25T07:23:43.141Z,82.76
2022-11-25T07:28:45.607Z,82.72
2022-11-25T07:33:47.640Z,82.77
2022-11-25T07:38:49.920Z,82.99
2022-11-25T07:43:54.617Z,82.82
2022-11-25T07:49:00.670Z,82.70
2022-11-25T07:54:05.558Z,82.71
2022-11-25T07:59:11.347Z,82.74
2022-11-25T08:04:19.859Z,82.61
2022-11-25T08:09:23.877Z,82.61
2022-11-25T08:14:26.686Z,82.61
2022-11-25T08:19:31.598Z,82.46
2022-11-25T08:24:33.478Z,82.43
2022-11-25T08:29:35.778Z,82.43
2022-11-25T08:34:37.952Z,82.34
2022-11-25T08:39:56.438Z,82.26
2022-11-25T08:44:58.588Z,82.32
2022-11-25T08:50:00.468Z,82.20
2022-11-25T08:55:02.308Z,81.96
2022-11-25T09:00:08.292Z,81.74
2022-11-25T09:05:14.252Z,81.59
2022-11-25T09:10:17.875Z,81.45
2022-11-25T09:15:19.759Z,81.38
2022-11-25T09:20:21.754Z,81.24
2022-11-25T09:25:23.713Z,81.02
2022-11-25T09:30:26.551Z,80.87
2022-11-25T09:35:28.666Z,80.67
2022-11-25T09:40:42.400Z,80.51
2022-11-25T09:46:38.660Z,80.40
2022-11-25T09:51:56.763Z,80.22
2022-11-25T09:57:09.205Z,80.01
2022-11-25T10:02:20.479Z,79.79
2022-11-25T10:07:35.028Z,79.27
2022-11-25T10:12:43.620Z,79.05
2022-11-25T10:17:51.635Z,79.00
2022-11-25T10:23:11.958Z,79.13
2022-11-25T10:28:23.350Z,78.49
2022-11-25T10:33:29.032Z,78.37
2022-11-25T10:38:39.857Z,78.21
2022-11-25T10:43:43.190Z,78.29
2022-11-25T10:49:00.605Z,77.97
2022-11-25T10:54:09.236Z,77.79
2022-11-25T10:59:35.898Z,77.87
2022-11-25T11:05:09.520Z,78.03
2022-11-25T11:10:14.422Z,77.61
2022-11-25T11:15:23.185Z,77.48
2022-11-25T11:20:30.411Z,76.95
2022-11-25T11:25:35.625Z,77.49
2022-11-25T11:30:37.499Z,77.48
2022-11-25T11:35:52.826Z,77.36
2022-11-25T11:41:20.084Z,76.00
2022-11-25T11:46:42.047Z,76.16
2022-11-25T11:51:50.934Z,76.38
2022-11-25T11:57:14.868Z,76.49
2022-11-25T12:02:35.544Z,76.26
2022-11-25T12:08:14.862Z,76.21
2022-11-25T12:13:19.472Z,76.41
2022-11-25T12:18:49.905Z,76.60
2022-11-25T12:24:04.484Z,76.24
2022-11-25T12:29:12.186Z,76.65
2022-11-25T12:34:21.690Z,76.60
2022-11-25T12:39:40.736Z,76.52
2022-11-25T12:44:59.467Z,76.46
2022-11-25T12:50:01.888Z,76.42
2022-11-25T12:55:13.779Z,76.06
2022-11-25T13:06:10.751Z,76.21
2022-11-25T13:11:27.849Z,75.96
2022-11-25T13:16:32.080Z,76.18
2022-11-25T13:21:34.496Z,76.10
2022-11-25T13:26:48.560Z,76.22
2022-11-25T13:31:59.417Z,76.24
2022-11-25T13:37:22.910Z,75.94
2022-11-25T13:42:26.813Z,75.99
2022-11-25T13:47:28.605Z,75.46
2022-11-25T13:52:41.495Z,75.99
2022-11-25T13:58:04.175Z,76.27
2022-11-25T14:03:18.475Z,76.41
2022-11-25T14:08:32.687Z,76.43
2022-11-25T14:13:40.420Z,76.52
2022-11-25T14:19:28.497Z,76.48
2022-11-25T14:24:28.133Z,76.79
2022-11-25T14:29:32.999Z,76.59
2022-11-25T14:34:45.354Z,76.56
2022-11-25T14:40:01.628Z,76.67
2022-11-25T14:45:04.029Z,76.77
2022-11-25T14:55:37.178Z,76.81
2022-11-25T15:01:10.196Z,76.87
2022-11-25T15:06:14.086Z,76.97
2022-11-25T15:11:22.777Z,77.10
2022-11-25T15:16:55.009Z,77.09
2022-11-25T15:22:22.531Z,77.29
2022-11-25T15:27:27.953Z,77.54
2022-11-25T15:32:38.014Z,77.68
2022-11-25T15:37:39.813Z,78.01
2022-11-25T15:42:42.407Z,77.97
2022-11-25T15:47:45.084Z,77.89
2022-11-25T15:52:51.104Z,78.03
2022-11-25T15:57:54.429Z,78.01
2022-11-25T16:02:58.310Z,78.40
2022-11-25T16:08:32.498Z,78.13
2022-11-25T16:13:36.631Z,78.13
2022-11-25T16:18:41.621Z,77.97
2022-11-25T16:24:12.796Z,78.03
2022-11-25T16:29:22.590Z,78.06
2022-11-25T16:34:24.403Z,78.21
2022-11-25T16:39:26.282Z,78.28
2022-11-25T16:44:28.678Z,78.34
2022-11-25T16:49:31.518Z,78.39
2022-11-25T16:54:34.073Z,78.49
2022-11-25T16:59:40.102Z,78.58
2022-11-25T17:04:42.047Z,78.77
2022-11-25T17:09:45.092Z,78.78
2022-11-25T17:14:48.296Z,79.02
2022-11-25T17:19:50.304Z,79.01
2022-11-25T17:24:52.814Z,79.16
2022-11-25T17:29:56.587Z,79.17
2022-11-25T17:34:58.388Z,79.21
2022-11-25T17:40:00.236Z,79.13
2022-11-25T17:45:02.175Z,79.07
2022-11-25T17:50:21.462Z,79.20
2022-11-25T17:55:23.302Z,79.14
2022-11-25T18:00:25.449Z,78.97
2022-11-25T18:05:28.635Z,78.74
2022-11-25T18:10:30.641Z,78.69
2022-11-25T18:15:34.186Z,79.12
2022-11-25T18:20:35.995Z,79.36
2022-11-25T18:25:40.432Z,78.99
2022-11-25T18:30:42.879Z,78.81
2022-11-25T18:35:46.451Z,78.83
2022-11-25T18:40:53.259Z,78.80
2022-11-25T18:45:55.958Z,79.06
2022-11-25T18:50:57.833Z,79.14
2022-11-25T18:55:59.957Z,79.22
2022-11-25T19:01:04.791Z,79.24
2022-11-25T19:06:07.212Z,79.39
2022-11-25T19:11:19.267Z,79.24
2022-11-25T19:16:22.774Z,79.42
2022-11-25T19:21:24.748Z,79.36
2022-11-25T19:26:30.391Z,79.42
2022-11-25T19:31:33.505Z,79.40
2022-11-25T19:36:37.739Z,79.47
2022-11-25T19:41:39.602Z,79.50
2022-11-25T19:47:13.660Z,79.58
2022-11-25T19:52:21.453Z,79.66
2022-11-25T19:57:25.267Z,79.62
2022-11-25T20:02:27.261Z,79.63
2022-11-25T20:07:31.249Z,79.63
2022-11-25T20:12:33.219Z,79.64
2022-11-25T20:17:37.650Z,79.70
2022-11-25T20:22:43.631Z,79.72
2022-11-25T20:27:45.460Z,79.69
2022-11-25T20:32:47.359Z,79.60
2022-11-25T20:37:58.062Z,79.56
2022-11-25T20:43:00.517Z,79.53
2022-11-25T20:48:02.442Z,79.44
2022-11-25T20:53:04.385Z,79.56
2022-11-25T20:58:19.273Z,79.86
2022-11-25T21:03:21.501Z,79.92
2022-11-25T21:08:25.974Z,79.91
2022-11-25T21:13:30.133Z,80.18
2022-11-25T21:18:31.961Z,80.20
2022-11-25T21:23:36.591Z,79.94
2022-11-25T21:28:44.157Z,79.64
2022-11-25T21:33:47.257Z,79.49
2022-11-25T21:38:52.863Z,79.41
2022-11-25T21:43:54.865Z,79.53
2022-11-25T21:48:56.719Z,79.39
2022-11-25T21:53:58.528Z,79.42
2022-11-25T21:59:05.633Z,79.48
2022-11-25T22:04:13.067Z,79.44
2022-11-25T22:09:19.281Z,79.60
2022-11-25T22:14:28.797Z,79.97
2022-11-25T22:19:31.488Z,80.16
2022-11-25T22:24:33.929Z,80.34
2022-11-25T22:29:36.774Z,80.67
2022-11-25T22:34:39.683Z,80.80
2022-11-25T22:39:41.974Z,80.99
2022-11-25T22:44:47.031Z,80.96
2022-11-25T22:49:49.850Z,81.17
2022-11-25T22:54:51.802Z,81.48
2022-11-25T22:59:53.620Z,81.68
2022-11-25T23:04:56.662Z,81.69
2022-11-25T23:09:58.478Z,81.61
2022-11-25T23:15:00.269Z,81.67
2022-11-25T23:20:02.174Z,81.70
2022-11-25T23:25:12.159Z,81.86
2022-11-25T23:30:19.631Z,81.97
2022-11-25T23:35:36.348Z,81.96
2022-11-25T23:40:38.990Z,81.98
2022-11-25T23:45:52.615Z,82.12
2022-11-25T23:50:57.050Z,82.15
2022-11-25T23:55:58.995Z,82.23
